createdAt,value
2018-08-16T00:00:32.672Z,58.13
2018-08-16T00:03:01.815Z,58.94
2018-08-16T00:05:31.028Z,58.82
2018-08-16T00:08:00.371Z,58.29
2018-08-16T00:10:35.497Z,58.49
2018-08-16T00:13:05.090Z,58.45
2018-08-16T00:15:38.423Z,58.74
2018-08-16T00:18:07.902Z,59.12
2018-08-16T00:20:38.029Z,58.96
2018-08-16T00:23:07.069Z,59.03
2018-08-16T00:25:36.255Z,59.27
2018-08-16T00:28:05.657Z,59.94
2018-08-16T00:30:34.890Z,59.85
2018-08-16T00:33:03.791Z,59.95
2018-08-16T00:35:32.718Z,60.08
2018-08-16T00:38:01.785Z,60.33
2018-08-16T00:40:31.075Z,60.53
2018-08-16T00:43:01.128Z,60.50
2018-08-16T00:45:30.111Z,60.62
2018-08-16T00:47:59.084Z,60.77
2018-08-16T00:50:28.064Z,60.84
2018-08-16T00:52:56.901Z,60.99
2018-08-16T00:55:26.237Z,61.30
2018-08-16T00:58:02.569Z,61.62
2018-08-16T01:00:32.377Z,62.28
2018-08-16T01:03:07.553Z,62.17
2018-08-16T01:05:37.399Z,62.67
2018-08-16T01:08:06.579Z,63.26
2018-08-16T01:10:36.073Z,63.46
2018-08-16T01:13:05.434Z,63.48
2018-08-16T01:15:34.430Z,63.15
2018-08-16T01:18:03.448Z,63.39
2018-08-16T01:20:32.725Z,63.22
2018-08-16T01:23:01.638Z,63.57
2018-08-16T01:25:30.420Z,63.38
2018-08-16T01:28:00.654Z,63.28
2018-08-16T01:30:37.788Z,63.22
2018-08-16T01:33:07.262Z,63.05
2018-08-16T01:35:38.327Z,63.11
2018-08-16T01:38:07.871Z,62.59
2018-08-16T01:40:38.503Z,62.67
2018-08-16T01:43:07.732Z,62.50
2018-08-16T01:45:37.647Z,62.91
2018-08-16T01:48:10.988Z,62.84
2018-08-16T01:50:40.210Z,62.84
2018-08-16T01:53:09.325Z,63.35
2018-08-16T01:55:38.212Z,63.63
2018-08-16T01:58:07.266Z,63.86
2018-08-16T02:00:36.285Z,64.60
2018-08-16T02:03:05.485Z,65.02
2018-08-16T02:05:34.431Z,65.05
2018-08-16T02:08:03.411Z,65.44
2018-08-16T02:10:32.535Z,65.12
2018-08-16T02:13:01.629Z,65.43
2018-08-16T02:15:30.632Z,65.64
2018-08-16T02:18:00.070Z,66.06
2018-08-16T02:20:28.988Z,65.62
2018-08-16T02:22:57.920Z,65.66
2018-08-16T02:25:27.565Z,65.33
2018-08-16T02:27:56.589Z,65.99
2018-08-16T02:30:25.663Z,65.39
2018-08-16T02:32:55.450Z,65.59
2018-08-16T02:35:24.408Z,66.00
2018-08-16T02:37:54.322Z,65.47
2018-08-16T02:40:23.784Z,65.37
2018-08-16T02:42:52.605Z,65.53
2018-08-16T02:45:21.529Z,66.05
2018-08-16T02:47:50.450Z,66.23
2018-08-16T02:50:19.372Z,66.33
2018-08-16T02:52:48.470Z,66.21
2018-08-16T02:55:17.575Z,66.25
2018-08-16T02:57:46.777Z,66.67
2018-08-16T03:00:15.824Z,66.99
2018-08-16T03:02:44.956Z,67.01
2018-08-16T03:05:13.848Z,66.55
2018-08-16T03:07:42.893Z,66.36
2018-08-16T03:10:12.259Z,66.41
2018-08-16T03:12:41.250Z,66.52
2018-08-16T03:15:11.122Z,66.06
2018-08-16T03:17:40.985Z,65.97
2018-08-16T03:20:09.967Z,66.18
2018-08-16T03:22:39.185Z,65.96
2018-08-16T03:25:08.640Z,65.74
2018-08-16T03:27:41.435Z,66.37
2018-08-16T03:30:17.053Z,66.65
2018-08-16T03:32:45.892Z,67.08
2018-08-16T03:35:14.859Z,66.09
2018-08-16T03:37:43.925Z,66.54
2018-08-16T03:40:12.788Z,65.95
2018-08-16T03:42:42.536Z,65.88
2018-08-16T03:45:11.553Z,65.19
2018-08-16T03:47:40.516Z,65.31
2018-08-16T03:50:09.785Z,65.92
2018-08-16T03:52:38.956Z,65.34
2018-08-16T03:55:08.026Z,65.05
2018-08-16T03:57:37.107Z,63.57
2018-08-16T04:00:07.822Z,63.61
2018-08-16T04:02:36.827Z,63.27
2018-08-16T04:05:06.462Z,62.96
2018-08-16T04:07:35.760Z,62.45
2018-08-16T04:10:05.186Z,61.96
2018-08-16T04:12:34.182Z,61.20
2018-08-16T04:15:03.860Z,61.24
2018-08-16T04:17:35.112Z,60.75
2018-08-16T04:20:05.277Z,60.57
2018-08-16T04:22:34.639Z,60.27
2018-08-16T04:25:03.999Z,59.66
2018-08-16T04:27:33.368Z,59.04
2018-08-16T04:30:02.345Z,57.80
2018-08-16T04:32:31.473Z,58.66
2018-08-16T04:35:00.722Z,57.51
2018-08-16T04:37:29.827Z,57.10
2018-08-16T04:39:58.947Z,57.18
2018-08-16T04:42:29.138Z,57.42
2018-08-16T04:44:58.104Z,56.97
2018-08-16T04:47:26.985Z,56.15
2018-08-16T04:49:55.765Z,56.21
2018-08-16T04:52:24.795Z,56.46
2018-08-16T04:54:53.766Z,55.72
2018-08-16T04:57:24.103Z,56.44
2018-08-16T04:59:53.182Z,55.48
2018-08-16T05:02:22.131Z,55.34
2018-08-16T05:04:50.960Z,55.28
2018-08-16T05:07:19.818Z,54.92
2018-08-16T05:09:48.941Z,54.15
2018-08-16T05:12:17.849Z,53.29
2018-08-16T05:14:46.768Z,52.77
2018-08-16T05:17:15.621Z,51.26
2018-08-16T05:19:45.138Z,51.69
2018-08-16T05:22:14.115Z,51.17
2018-08-16T05:24:42.956Z,51.52
2018-08-16T05:27:12.440Z,51.96
2018-08-16T05:29:41.411Z,50.58
2018-08-16T05:32:10.170Z,49.88
2018-08-16T05:34:39.504Z,49.57
2018-08-16T05:37:08.427Z,50.00
2018-08-16T05:39:37.225Z,49.90
2018-08-16T05:42:06.380Z,49.82
2018-08-16T05:44:35.266Z,48.49
2018-08-16T05:47:04.112Z,49.20
2018-08-16T05:49:33.430Z,49.85
2018-08-16T05:52:02.353Z,49.63
2018-08-16T05:54:31.100Z,49.71
2018-08-16T05:57:00.512Z,49.30
2018-08-16T05:59:29.426Z,49.97
2018-08-16T06:01:58.206Z,50.72
2018-08-16T06:04:27.699Z,50.86
2018-08-16T06:06:56.540Z,51.76
2018-08-16T06:09:25.500Z,50.86
2018-08-16T06:11:54.855Z,52.04
2018-08-16T06:14:23.871Z,51.32
2018-08-16T06:16:52.731Z,50.99
2018-08-16T06:19:21.581Z,52.24
2018-08-16T06:21:50.389Z,48.68
2018-08-16T06:24:19.367Z,49.13
2018-08-16T06:26:48.800Z,49.20
2018-08-16T06:29:17.691Z,49.27
2018-08-16T06:31:46.618Z,48.32
2018-08-16T06:34:15.541Z,48.25
2018-08-16T06:36:44.524Z,49.14
2018-08-16T06:39:14.012Z,48.43
2018-08-16T06:41:43.326Z,47.41
2018-08-16T06:44:12.254Z,46.93
2018-08-16T06:46:41.162Z,46.58
2018-08-16T06:49:10.047Z,46.22
2018-08-16T06:51:38.932Z,47.07
2018-08-16T06:54:07.781Z,46.86
2018-08-16T06:56:37.093Z,46.64
2018-08-16T06:59:06.042Z,47.50
2018-08-16T07:01:34.937Z,47.05
2018-08-16T07:04:04.360Z,44.81
2018-08-16T07:06:33.276Z,45.08
2018-08-16T07:09:02.003Z,44.64
2018-08-16T07:11:31.210Z,44.46
2018-08-16T07:14:00.132Z,44.16
2018-08-16T07:16:28.999Z,44.84
2018-08-16T07:18:59.363Z,44.97
2018-08-16T07:21:28.168Z,44.79
2018-08-16T07:23:57.062Z,44.05
2018-08-16T07:26:26.408Z,43.44
2018-08-16T07:28:55.282Z,44.95
2018-08-16T07:31:24.180Z,44.83
2018-08-16T07:33:53.123Z,42.77
2018-08-16T07:36:21.880Z,43.65
2018-08-16T07:38:50.743Z,44.65
2018-08-16T07:41:20.218Z,43.93
2018-08-16T07:43:49.279Z,43.49
2018-08-16T07:46:18.232Z,43.87
2018-08-16T07:48:48.340Z,42.96
2018-08-16T07:51:17.300Z,42.71
2018-08-16T07:53:46.100Z,41.50
2018-08-16T07:56:15.111Z,41.98
2018-08-16T07:58:43.958Z,41.81
2018-08-16T08:01:12.812Z,40.78
2018-08-16T08:03:41.680Z,39.94
2018-08-16T08:06:10.508Z,40.71
2018-08-16T08:08:39.329Z,40.88
2018-08-16T08:11:08.759Z,38.50
2018-08-16T08:13:37.645Z,39.69
2018-08-16T08:16:06.613Z,38.54
2018-08-16T08:18:35.941Z,38.92
2018-08-16T08:21:04.890Z,38.44
2018-08-16T08:23:33.720Z,38.40
2018-08-16T08:26:02.718Z,37.26
2018-08-16T08:28:31.573Z,37.74
2018-08-16T08:31:00.542Z,38.07
2018-08-16T08:33:30.104Z,37.77
2018-08-16T08:36:09.841Z,36.84
2018-08-16T08:38:38.722Z,35.96
2018-08-16T08:41:07.712Z,36.74
2018-08-16T08:43:49.197Z,36.04
2018-08-16T08:46:18.104Z,34.80
2018-08-16T08:48:47.081Z,33.16
2018-08-16T08:51:16.458Z,33.65
2018-08-16T08:54:56.400Z,33.75
2018-08-16T08:57:36.947Z,32.80
2018-08-16T09:00:07.609Z,33.06
2018-08-16T09:02:36.681Z,32.59
2018-08-16T09:05:06.595Z,33.15
2018-08-16T09:07:35.381Z,32.28
2018-08-16T09:11:15.953Z,32.70
2018-08-16T09:13:56.912Z,31.88
2018-08-16T09:16:30.454Z,31.74
2018-08-16T09:18:59.538Z,31.87
2018-08-16T09:21:29.145Z,32.34
2018-08-16T09:23:58.387Z,31.78
2018-08-16T09:26:32.320Z,32.51
2018-08-16T09:29:01.250Z,30.42
2018-08-16T09:31:40.961Z,30.93
2018-08-16T09:34:18.957Z,30.15
2018-08-16T09:36:47.816Z,30.39
2018-08-16T09:39:16.838Z,30.96
2018-08-16T09:41:45.780Z,30.08
2018-08-16T09:44:14.619Z,29.92
2018-08-16T09:46:56.108Z,30.05
2018-08-16T09:49:24.993Z,28.89
2018-08-16T09:51:54.146Z,29.43
2018-08-16T09:54:23.099Z,29.57
2018-08-16T09:56:52.518Z,30.24
2018-08-16T09:59:21.476Z,29.84
2018-08-16T10:01:50.419Z,29.88
2018-08-16T10:04:19.258Z,30.40
2018-08-16T10:06:48.152Z,29.07
2018-08-16T10:09:25.527Z,27.97
2018-08-16T10:11:55.302Z,28.20
2018-08-16T10:14:24.236Z,28.17
2018-08-16T10:16:53.597Z,29.52
2018-08-16T10:19:22.911Z,29.30
2018-08-16T10:21:51.690Z,28.50
2018-08-16T10:24:20.930Z,28.32
2018-08-16T10:26:49.994Z,27.82
2018-08-16T10:29:18.924Z,28.48
2018-08-16T10:31:48.772Z,27.21
2018-08-16T10:34:17.513Z,24.80
2018-08-16T10:36:46.423Z,25.79
2018-08-16T10:39:17.436Z,25.85
2018-08-16T10:41:46.588Z,26.17
2018-08-16T10:44:15.705Z,25.40
2018-08-16T10:53:30.133Z,26.39
2018-08-16T10:55:59.835Z,26.03
2018-08-16T10:58:28.819Z,25.37
2018-08-16T11:00:58.309Z,25.02
2018-08-16T11:03:27.208Z,25.79
2018-08-16T11:05:56.545Z,25.76
2018-08-16T11:08:26.033Z,25.37
2018-08-16T11:10:55.002Z,27.32
2018-08-16T11:13:23.916Z,25.76
2018-08-16T11:15:53.202Z,27.38
2018-08-16T11:21:00.579Z,25.53
2018-08-16T11:23:29.699Z,26.49
2018-08-16T11:25:59.092Z,25.94
2018-08-16T11:28:28.091Z,25.51
2018-08-16T11:30:57.013Z,25.13
2018-08-16T11:33:26.066Z,26.56
2018-08-16T11:35:55.320Z,27.46
2018-08-16T11:38:25.376Z,26.53
2018-08-16T11:40:54.316Z,27.21
2018-08-16T11:43:23.542Z,25.79
2018-08-16T11:45:52.334Z,26.34
2018-08-16T11:48:21.222Z,25.25
2018-08-16T11:57:35.355Z,25.15
2018-08-16T12:00:04.421Z,26.34
2018-08-16T12:02:33.265Z,27.03
2018-08-16T12:05:02.416Z,25.92
2018-08-16T12:07:31.204Z,25.89
2018-08-16T12:10:00.088Z,27.62
2018-08-16T12:12:28.974Z,27.57
2018-08-16T12:14:57.753Z,26.93
2018-08-16T12:17:26.677Z,26.15
2018-08-16T12:19:56.021Z,26.38
2018-08-16T12:22:24.860Z,25.12
2018-08-16T12:24:53.795Z,24.27
2018-08-16T12:27:23.022Z,24.80
2018-08-16T12:29:51.947Z,25.60
2018-08-16T12:32:20.825Z,24.80
2018-08-16T12:34:50.470Z,25.36
2018-08-16T12:37:19.358Z,25.04
2018-08-16T12:39:48.312Z,25.48
2018-08-16T12:42:17.399Z,24.84
2018-08-16T12:44:46.342Z,25.78
2018-08-16T12:47:15.220Z,26.33
2018-08-16T12:49:44.100Z,26.25
2018-08-16T12:52:12.856Z,25.63
2018-08-16T12:54:41.697Z,26.21
2018-08-16T12:57:10.931Z,25.89
2018-08-16T12:59:39.712Z,27.56
2018-08-16T13:02:08.763Z,28.09
2018-08-16T13:04:38.190Z,25.83
2018-08-16T13:07:07.043Z,27.23
2018-08-16T13:09:35.945Z,26.34
2018-08-16T13:12:05.269Z,27.21
2018-08-16T13:14:34.029Z,27.35
2018-08-16T13:17:02.815Z,25.91
2018-08-16T13:20:34.793Z,26.69
2018-08-16T13:23:03.724Z,25.44
2018-08-16T13:25:32.603Z,25.40
2018-08-16T13:28:01.525Z,23.77
2018-08-16T13:30:30.473Z,23.31
2018-08-16T13:32:59.273Z,24.08
2018-08-16T13:35:28.150Z,24.69
2018-08-16T13:37:57.055Z,24.86
2018-08-16T13:40:25.866Z,24.92
2018-08-16T13:42:54.657Z,24.32
2018-08-16T13:45:23.602Z,25.55
2018-08-16T13:47:52.429Z,25.62
2018-08-16T13:50:21.282Z,25.75
2018-08-16T13:52:50.081Z,25.90
2018-08-16T13:55:19.002Z,24.83
2018-08-16T13:57:48.365Z,24.53
2018-08-16T14:00:17.182Z,25.37
2018-08-16T14:02:46.131Z,24.73
2018-08-16T14:05:15.047Z,24.76
2018-08-16T14:07:43.976Z,26.10
2018-08-16T14:10:12.935Z,26.42
2018-08-16T14:12:42.559Z,25.74
2018-08-16T14:15:11.391Z,26.12
2018-08-16T14:17:40.179Z,26.59
2018-08-16T14:20:09.515Z,26.28
2018-08-16T14:22:38.303Z,26.11
2018-08-16T14:25:07.641Z,27.28
2018-08-16T14:27:36.494Z,27.97
2018-08-16T14:30:06.848Z,27.06
2018-08-16T14:32:35.894Z,27.07
2018-08-16T14:35:04.984Z,27.38
2018-08-16T14:37:35.446Z,26.69
2018-08-16T14:40:04.374Z,26.84
2018-08-16T14:42:33.294Z,26.37
2018-08-16T14:45:02.232Z,26.67
2018-08-16T14:47:31.240Z,25.74
2018-08-16T14:50:00.157Z,26.26
2018-08-16T14:52:28.967Z,27.67
2018-08-16T14:54:57.888Z,28.03
2018-08-16T14:57:26.763Z,28.20
2018-08-16T14:59:55.501Z,29.44
2018-08-16T15:02:24.473Z,27.80
2018-08-16T15:04:53.429Z,28.57
2018-08-16T15:07:22.416Z,28.92
2018-08-16T15:09:51.630Z,28.95
2018-08-16T15:12:20.498Z,28.59
2018-08-16T15:14:49.330Z,29.00
2018-08-16T15:17:18.332Z,30.08
2018-08-16T15:19:47.276Z,29.77
2018-08-16T15:22:16.251Z,29.37
2018-08-16T15:24:45.366Z,31.06
2018-08-16T15:27:14.145Z,31.33
2018-08-16T15:29:43.076Z,31.22
2018-08-16T15:32:12.268Z,31.22
2018-08-16T15:34:41.024Z,32.38
2018-08-16T15:37:10.005Z,32.16
2018-08-16T15:39:39.295Z,32.54
2018-08-16T15:42:08.113Z,32.02
2018-08-16T15:44:36.963Z,32.10
2018-08-16T15:47:06.377Z,32.24
2018-08-16T15:49:35.250Z,32.78
2018-08-16T15:52:04.215Z,32.10
2018-08-16T15:54:33.478Z,32.82
2018-08-16T16:03:47.411Z,32.86
2018-08-16T16:06:16.433Z,32.04
2018-08-16T16:08:45.276Z,33.10
2018-08-16T16:11:14.689Z,33.01
2018-08-16T16:13:43.680Z,32.97
2018-08-16T16:16:12.539Z,32.93
2018-08-16T16:18:41.984Z,32.85
2018-08-16T16:21:10.929Z,32.93
2018-08-16T16:23:39.803Z,33.55
2018-08-16T16:26:09.060Z,33.03
2018-08-16T16:28:37.994Z,31.84
2018-08-16T16:32:09.588Z,32.64
2018-08-16T16:34:38.424Z,32.23
2018-08-16T16:37:07.312Z,33.04
2018-08-16T16:39:36.315Z,32.00
2018-08-16T16:42:05.302Z,32.88
2018-08-16T16:44:33.974Z,33.57
2018-08-16T16:47:03.221Z,33.50
2018-08-16T16:49:32.101Z,33.92
2018-08-16T16:52:01.008Z,32.71
2018-08-16T16:54:29.985Z,32.80
2018-08-16T16:56:58.936Z,32.99
2018-08-16T16:59:27.849Z,33.32
2018-08-16T17:01:56.759Z,33.65
2018-08-16T17:04:25.636Z,33.95
2018-08-16T17:06:54.856Z,34.44
2018-08-16T17:09:24.258Z,34.86
2018-08-16T17:12:55.556Z,34.63
2018-08-16T17:15:24.613Z,34.86
2018-08-16T17:17:53.538Z,35.99
2018-08-16T17:20:22.356Z,35.44
2018-08-16T17:22:51.220Z,35.50
2018-08-16T17:25:20.002Z,36.45
2018-08-16T17:27:48.825Z,36.62
2018-08-16T17:30:18.090Z,35.95
2018-08-16T17:32:46.958Z,36.58
2018-08-16T17:35:15.843Z,37.29
2018-08-16T17:37:45.112Z,37.79
2018-08-16T17:40:14.033Z,36.99
2018-08-16T17:44:12.362Z,37.12
2018-08-16T17:46:41.368Z,38.65
2018-08-16T17:49:10.337Z,38.81
2018-08-16T17:51:39.467Z,38.58
2018-08-16T17:54:08.311Z,39.32
2018-08-16T17:56:37.127Z,39.26
2018-08-16T17:59:06.385Z,39.43
2018-08-16T18:01:35.366Z,39.42
2018-08-16T18:04:04.294Z,40.09
2018-08-16T18:06:33.241Z,39.88
2018-08-16T18:09:02.139Z,40.11
2018-08-16T18:11:30.953Z,41.09
2018-08-16T18:15:02.709Z,40.25
2018-08-16T18:17:31.560Z,40.32
2018-08-16T18:20:00.524Z,40.82
2018-08-16T18:22:29.834Z,40.85
2018-08-16T18:24:58.824Z,39.62
2018-08-16T18:27:27.663Z,40.76
2018-08-16T18:29:56.638Z,40.29
2018-08-16T18:32:25.608Z,40.74
2018-08-16T18:34:54.617Z,40.90
2018-08-16T18:37:23.705Z,40.76
2018-08-16T18:39:52.766Z,40.39
2018-08-16T18:42:21.952Z,41.38
2018-08-16T18:44:51.419Z,42.05
2018-08-16T18:47:20.713Z,44.87
2018-08-16T18:49:49.861Z,44.77
2018-08-16T18:52:18.782Z,46.05
2018-08-16T18:54:47.748Z,47.14
2018-08-16T18:57:16.806Z,48.00
2018-08-16T18:59:45.982Z,50.13
2018-08-16T19:02:14.983Z,51.88
2018-08-16T19:04:43.835Z,52.82
2018-08-16T19:07:12.822Z,54.21
2018-08-16T19:09:41.674Z,57.81
2018-08-16T19:12:10.580Z,59.83
2018-08-16T19:14:39.740Z,60.20
2018-08-16T19:17:08.639Z,60.88
2018-08-16T19:19:37.379Z,61.03
2018-08-16T19:22:06.620Z,61.20
2018-08-16T19:24:35.497Z,63.53
2018-08-16T19:27:04.459Z,63.67
2018-08-16T19:29:33.332Z,63.23
2018-08-16T19:32:02.233Z,62.33
2018-08-16T19:34:31.062Z,62.98
2018-08-16T19:37:00.359Z,62.81
2018-08-16T19:39:29.238Z,65.70
2018-08-16T19:41:58.119Z,78.02
2018-08-16T19:44:27.371Z,81.68
2018-08-16T19:46:56.285Z,85.08
2018-08-16T19:49:25.226Z,92.36
2018-08-16T19:51:54.198Z,99.59
2018-08-16T19:54:23.242Z,97.62
2018-08-16T19:56:52.297Z,97.54
2018-08-16T19:59:21.505Z,100.00
2018-08-16T20:01:50.379Z,100.00
2018-08-16T20:04:19.281Z,100.00
2018-08-16T20:06:48.624Z,100.00
2018-08-16T20:09:17.524Z,99.03
2018-08-16T20:11:46.532Z,97.83
2018-08-16T20:14:15.524Z,95.48
2018-08-16T20:16:44.553Z,91.27
2018-08-16T20:19:13.507Z,92.50
2018-08-16T20:21:44.762Z,95.07
2018-08-16T20:24:13.771Z,91.26
2018-08-16T20:26:43.031Z,83.69
2018-08-16T20:29:12.052Z,89.29
2018-08-16T20:31:43.175Z,92.01
2018-08-16T20:34:12.564Z,90.80
2018-08-16T20:36:41.634Z,95.46
2018-08-16T20:39:10.720Z,95.18
2018-08-16T20:41:40.002Z,99.18
2018-08-16T20:44:10.328Z,100.00
2018-08-16T20:46:39.673Z,100.00
2018-08-16T20:49:09.194Z,100.00
2018-08-16T20:51:38.714Z,100.00
2018-08-16T20:54:07.903Z,100.00
2018-08-16T20:56:36.910Z,100.00
2018-08-16T20:59:06.018Z,100.00
2018-08-16T21:01:35.119Z,100.00
2018-08-16T21:04:04.272Z,100.00
2018-08-16T21:06:33.156Z,100.00
2018-08-16T21:09:02.208Z,100.00
2018-08-16T21:11:31.235Z,100.00
2018-08-16T21:14:00.365Z,100.00
2018-08-16T21:16:29.426Z,100.00
2018-08-16T21:18:59.086Z,100.00
2018-08-16T21:21:28.043Z,100.00
2018-08-16T21:23:57.034Z,100.00
2018-08-16T21:26:26.571Z,100.00
2018-08-16T21:28:55.395Z,100.00
2018-08-16T21:31:24.303Z,100.00
2018-08-16T21:33:53.843Z,100.00
2018-08-16T21:36:22.785Z,100.00
2018-08-16T21:38:51.813Z,100.00
2018-08-16T21:41:20.780Z,100.00
2018-08-16T21:43:49.815Z,100.00
2018-08-16T21:46:18.667Z,100.00
2018-08-16T21:48:47.690Z,100.00
2018-08-16T21:51:16.826Z,100.00
2018-08-16T21:53:45.727Z,100.00
2018-08-16T21:56:15.079Z,100.00
2018-08-16T21:58:43.991Z,100.00
2018-08-16T22:01:13.238Z,100.00
2018-08-16T22:03:42.729Z,100.00
2018-08-16T22:06:16.150Z,100.00
2018-08-16T22:08:52.233Z,100.00
2018-08-16T22:11:21.223Z,100.00
2018-08-16T22:13:50.305Z,100.00
2018-08-16T22:16:19.908Z,100.00
2018-08-16T22:18:48.934Z,100.00
2018-08-16T22:21:17.984Z,100.00
2018-08-16T22:23:47.579Z,100.00
2018-08-16T22:26:16.972Z,100.00
2018-08-16T22:28:45.913Z,100.00
2018-08-16T22:31:15.416Z,100.00
2018-08-16T22:33:44.450Z,100.00
2018-08-16T22:36:13.418Z,100.00
2018-08-16T22:38:42.550Z,100.00
2018-08-16T22:41:11.532Z,100.00
2018-08-16T22:43:40.427Z,100.00
2018-08-16T22:46:09.524Z,100.00
2018-08-16T22:48:38.413Z,100.00
2018-08-16T22:51:07.686Z,100.00
2018-08-16T22:53:36.832Z,100.00
2018-08-16T22:56:05.901Z,100.00
2018-08-16T22:58:35.005Z,100.00
2018-08-16T23:01:04.558Z,100.00
2018-08-16T23:03:33.616Z,100.00
2018-08-16T23:06:02.679Z,100.00
2018-08-16T23:08:32.263Z,100.00
2018-08-16T23:11:01.225Z,100.00
2018-08-16T23:13:30.321Z,99.91
2018-08-16T23:15:59.973Z,100.00
2018-08-16T23:18:28.988Z,100.00
2018-08-16T23:20:58.172Z,99.94
2018-08-16T23:23:27.454Z,98.77
2018-08-16T23:25:56.496Z,99.91
2018-08-16T23:28:25.508Z,100.00
2018-08-16T23:30:55.096Z,100.00
2018-08-16T23:33:24.127Z,100.00
2018-08-16T23:35:53.275Z,100.00
2018-08-16T23:38:22.385Z,100.00
2018-08-16T23:40:51.436Z,100.00
2018-08-16T23:43:20.519Z,100.00
2018-08-16T23:45:49.580Z,100.00
2018-08-16T23:48:27.531Z,100.00
2018-08-16T23:50:56.713Z,100.00
2018-08-16T23:53:25.708Z,100.00
2018-08-16T23:55:54.840Z,100.00
2018-08-16T23:58:24.010Z,100.00
